Time;durP1;ratioP1;P1;durP2;ratioP2;P2;SDS_P1;SDS_P2;PMS_P1;PMS_P2;Temp;Humidity;BMP_temperature;BMP_pressure;BME280_temperature;BME280_humidity;BME280_pressure;Samples;Min_cycle;Max_cycle;Signal;HPM_P1;HPM_P2
2022/03/20 00:01:59;;;;;;;8.13;7.17;;;;;;;;;;5062299;28;20203;-55
2022/03/20 00:04:25;;;;;;;10.10;7.80;;;;;;;;;;5060479;28;20191;-55
2022/03/20 00:06:52;;;;;;;10.07;8.13;;;;;;;;;;5081228;28;20640;-55
2022/03/20 00:09:18;;;;;;;10.73;8.20;;;;;;;;;;5064821;28;20232;-55
2022/03/20 00:11:44;;;;;;;10.27;8.30;;;;;;;;;;5084935;28;20221;-55
2022/03/20 00:14:10;;;;;;;9.77;8.53;;;;;;;;;;5087009;28;20251;-55
2022/03/20 00:16:36;;;;;;;9.83;8.53;;;;;;;;;;5066446;28;20183;-55
2022/03/20 00:19:05;;;;;;;11.50;9.20;;;;;;;;;;5082136;28;20521;-55
2022/03/20 00:21:31;;;;;;;11.90;9.00;;;;;;;;;;5081937;28;20202;-56
2022/03/20 00:23:57;;;;;;;9.83;8.83;;;;;;;;;;5090230;28;20207;-55
2022/03/20 00:26:23;;;;;;;9.83;8.83;;;;;;;;;;5086795;28;20176;-55
2022/03/20 00:28:50;;;;;;;12.27;10.03;;;;;;;;;;5090038;28;20329;-54
2022/03/20 00:31:16;;;;;;;10.30;9.20;;;;;;;;;;5072074;28;20563;-55
2022/03/20 00:33:42;;;;;;;11.20;9.83;;;;;;;;;;5072972;28;20582;-55
2022/03/20 00:36:08;;;;;;;11.53;9.43;;;;;;;;;;5086219;28;20188;-55
2022/03/20 00:38:35;;;;;;;11.57;9.73;;;;;;;;;;5055645;28;20666;-55
2022/03/20 00:41:01;;;;;;;12.30;10.33;;;;;;;;;;5071589;28;20168;-55
2022/03/20 00:43:27;;;;;;;11.60;10.17;;;;;;;;;;5063243;28;20226;-55
2022/03/20 00:45:53;;;;;;;11.53;10.33;;;;;;;;;;5071313;28;20686;-55
2022/03/20 00:48:19;;;;;;;11.90;9.87;;;;;;;;;;5071190;28;20180;-55
2022/03/20 00:50:45;;;;;;;11.30;10.13;;;;;;;;;;5090355;28;20167;-55
2022/03/20 00:53:11;;;;;;;12.30;10.73;;;;;;;;;;5089501;28;20550;-55
2022/03/20 00:55:37;;;;;;;11.73;10.03;;;;;;;;;;5080358;28;20172;-55
2022/03/20 00:58:04;;;;;;;11.50;10.30;;;;;;;;;;5068721;28;20200;-55
2022/03/20 01:00:32;;;;;;;13.40;10.00;;;;;;;;;;5068532;28;20179;-55
2022/03/20 01:02:59;;;;;;;11.27;10.07;;;;;;;;;;5085637;28;20184;-55
2022/03/20 01:05:26;;;;;;;14.33;10.70;;;;;;;;;;5072141;28;20179;-54
2022/03/20 01:07:52;;;;;;;12.60;11.30;;;;;;;;;;5069979;28;20195;-55
2022/03/20 01:10:18;;;;;;;11.13;9.90;;;;;;;;;;5065796;28;20254;-54
2022/03/20 01:12:46;;;;;;;14.07;10.53;;;;;;;;;;5080412;28;20186;-55
2022/03/20 01:15:13;;;;;;;11.80;10.60;;;;;;;;;;5090287;28;20250;-54
2022/03/20 01:17:39;;;;;;;10.97;9.83;;;;;;;;;;5089670;28;20179;-54
2022/03/20 01:20:09;;;;;;;11.87;10.37;;;;;;;;;;5069706;28;20560;-54
2022/03/20 01:22:35;;;;;;;13.03;10.97;;;;;;;;;;5085215;28;20213;-54
2022/03/20 01:25:01;;;;;;;12.97;10.40;;;;;;;;;;5068034;28;20248;-55
2022/03/20 01:27:27;;;;;;;11.87;9.90;;;;;;;;;;5088139;28;20593;-55
2022/03/20 01:29:53;;;;;;;12.00;10.77;;;;;;;;;;5086157;28;20192;-55
2022/03/20 01:32:19;;;;;;;12.00;9.83;;;;;;;;;;5089259;28;20555;-56
2022/03/20 01:34:47;;;;;;;11.23;10.03;;;;;;;;;;5088445;28;20220;-56
2022/03/20 01:37:13;;;;;;;13.43;10.63;;;;;;;;;;5085329;28;20369;-55
2022/03/20 01:39:39;;;;;;;16.70;10.60;;;;;;;;;;5086932;28;20180;-54
2022/03/20 01:42:05;;;;;;;13.20;10.13;;;;;;;;;;5077952;28;20193;-55
2022/03/20 01:44:35;;;;;;;14.70;11.23;;;;;;;;;;5069275;28;20208;-55
2022/03/20 01:47:02;;;;;;;11.07;9.90;;;;;;;;;;5083295;28;20902;-55
2022/03/20 01:49:28;;;;;;;11.90;10.70;;;;;;;;;;5088621;28;20737;-55
2022/03/20 01:54:39;;;;;;;13.80;11.13;;;;;;;;;;5089217;28;20179;-55
2022/03/20 01:57:07;;;;;;;12.57;10.70;;;;;;;;;;5100514;28;20202;-55
2022/03/20 01:59:34;;;;;;;12.07;10.77;;;;;;;;;;5091272;28;20603;-55
2022/03/20 02:02:02;;;;;;;13.10;11.50;;;;;;;;;;5067646;28;20192;-55
2022/03/20 02:04:28;;;;;;;14.53;10.67;;;;;;;;;;5071746;28;20652;-55
2022/03/20 02:06:54;;;;;;;12.87;10.57;;;;;;;;;;5068395;28;20557;-55
2022/03/20 02:09:21;;;;;;;12.67;10.83;;;;;;;;;;5069498;28;20721;-55
2022/03/20 02:11:48;;;;;;;14.73;10.57;;;;;;;;;;5062822;28;20225;-55
2022/03/20 02:14:15;;;;;;;12.80;10.77;;;;;;;;;;5092413;28;20631;-55
2022/03/20 02:16:41;;;;;;;14.43;11.30;;;;;;;;;;5085985;28;20184;-55
2022/03/20 02:19:08;;;;;;;17.27;9.90;;;;;;;;;;5084952;28;20723;-55
2022/03/20 02:21:48;;;;;;;12.67;11.27;;;;;;;;;;5082920;28;20187;-55
2022/03/20 02:24:33;;;;;;;11.67;10.33;;;;;;;;;;5088846;28;20764;-55
2022/03/20 02:27:04;;;;;;;12.67;10.67;;;;;;;;;;5075609;28;20186;-55
2022/03/20 02:29:30;;;;;;;12.70;10.63;;;;;;;;;;5084462;28;20252;-55
2022/03/20 02:31:58;;;;;;;15.17;11.33;;;;;;;;;;5086615;28;20179;-56
2022/03/20 02:34:25;;;;;;;13.50;11.07;;;;;;;;;;5087322;28;20176;-56
2022/03/20 02:36:51;;;;;;;11.60;10.43;;;;;;;;;;5077685;28;20593;-56
2022/03/20 02:39:17;;;;;;;14.63;11.33;;;;;;;;;;5081820;28;20183;-56
2022/03/20 02:41:44;;;;;;;15.27;11.73;;;;;;;;;;5078648;28;20180;-56
2022/03/20 02:44:10;;;;;;;14.13;10.73;;;;;;;;;;5050761;28;20647;-56
2022/03/20 02:46:37;;;;;;;12.13;10.37;;;;;;;;;;5082769;28;20584;-55
2022/03/20 02:49:06;;;;;;;12.80;11.10;;;;;;;;;;5086343;28;20234;-55
2022/03/20 02:51:32;;;;;;;12.33;10.80;;;;;;;;;;5084436;28;20237;-56
2022/03/20 02:53:58;;;;;;;11.83;10.40;;;;;;;;;;5078993;28;20257;-55
2022/03/20 02:56:27;;;;;;;13.03;10.60;;;;;;;;;;5077176;28;20195;-55
2022/03/20 02:58:53;;;;;;;13.00;11.70;;;;;;;;;;5085990;28;20567;-56
2022/03/20 03:01:20;;;;;;;13.47;10.60;;;;;;;;;;5085724;28;20187;-55
2022/03/20 03:03:46;;;;;;;12.23;10.67;;;;;;;;;;5069353;28;20647;-55
2022/03/20 03:06:13;;;;;;;13.27;10.77;;;;;;;;;;5084172;28;20216;-55
2022/03/20 03:11:25;;;;;;;14.60;11.70;;;;;;;;;;5083789;28;20217;-55
2022/03/20 03:13:51;;;;;;;11.60;10.30;;;;;;;;;;5068809;28;20223;-54
2022/03/20 03:16:18;;;;;;;12.83;11.17;;;;;;;;;;5067553;28;20174;-55
2022/03/20 03:18:48;;;;;;;13.67;11.03;;;;;;;;;;5053348;28;20238;-54
2022/03/20 03:21:18;;;;;;;12.17;10.40;;;;;;;;;;5080359;28;20175;-55
2022/03/20 03:23:44;;;;;;;12.33;11.00;;;;;;;;;;5087330;28;20573;-55
2022/03/20 03:26:11;;;;;;;12.90;11.13;;;;;;;;;;5086693;28;20232;-55
2022/03/20 03:28:37;;;;;;;14.50;11.70;;;;;;;;;;5081789;28;20176;-55
2022/03/20 03:31:04;;;;;;;13.07;11.00;;;;;;;;;;5086630;28;20179;-55
2022/03/20 03:33:31;;;;;;;11.93;10.40;;;;;;;;;;5087644;28;20168;-55
2022/03/20 03:35:57;;;;;;;13.07;11.63;;;;;;;;;;5085516;28;20190;-55
2022/03/20 03:38:41;;;;;;;13.30;10.37;;;;;;;;;;5085970;28;20233;-56
2022/03/20 03:41:07;;;;;;;11.77;10.33;;;;;;;;;;5086762;28;20176;-56
2022/03/20 03:43:33;;;;;;;12.57;10.80;;;;;;;;;;5087558;28;20167;-55
2022/03/20 03:45:59;;;;;;;13.03;10.60;;;;;;;;;;5079382;28;20184;-55
2022/03/20 03:48:25;;;;;;;14.20;11.10;;;;;;;;;;5072559;28;20172;-55
2022/03/20 03:50:52;;;;;;;15.00;11.73;;;;;;;;;;5074816;28;20257;-55
2022/03/20 03:53:18;;;;;;;13.43;10.93;;;;;;;;;;5086143;28;20214;-55
2022/03/20 03:55:44;;;;;;;12.43;11.23;;;;;;;;;;5085711;28;20184;-55
2022/03/20 03:58:16;;;;;;;16.40;11.63;;;;;;;;;;5086945;28;20204;-55
2022/03/20 04:00:43;;;;;;;14.43;11.37;;;;;;;;;;5084617;28;20713;-55
2022/03/20 04:03:09;;;;;;;13.07;10.80;;;;;;;;;;5071970;28;20184;-55
2022/03/20 04:05:35;;;;;;;13.60;11.60;;;;;;;;;;5082315;28;20206;-56
2022/03/20 04:08:02;;;;;;;13.77;10.27;;;;;;;;;;5087593;28;20180;-55
2022/03/20 04:10:28;;;;;;;12.50;11.17;;;;;;;;;;5076196;28;20203;-55
2022/03/20 04:12:54;;;;;;;14.83;11.90;;;;;;;;;;5089111;28;20767;-55
2022/03/20 04:15:24;;;;;;;12.77;11.07;;;;;;;;;;5089426;28;20666;-55
2022/03/20 04:17:51;;;;;;;11.87;9.80;;;;;;;;;;5090927;28;20190;-55
2022/03/20 04:20:17;;;;;;;13.97;11.00;;;;;;;;;;5066768;28;20750;-56
2022/03/20 04:23:42;;;;;;;14.47;11.37;;;;;;;;;;5089831;28;20229;-55
2022/03/20 04:25:29;;;;;;;16.03;11.37;;;;;;;;;;5085117;28;20199;-56
2022/03/20 04:27:56;;;;;;;14.77;10.70;;;;;;;;;;5071478;28;20187;-56
2022/03/20 04:30:26;;;;;;;14.10;11.10;;;;;;;;;;5090092;28;20203;-56
2022/03/20 04:32:53;;;;;;;13.03;11.30;;;;;;;;;;5090381;28;20237;-54
2022/03/20 04:35:25;;;;;;;12.80;10.60;;;;;;;;;;5088912;28;20263;-55
2022/03/20 04:37:52;;;;;;;11.57;10.27;;;;;;;;;;5070524;28;20611;-54
2022/03/20 04:40:18;;;;;;;15.20;12.67;;;;;;;;;;5076869;28;20293;-54
2022/03/20 04:42:44;;;;;;;12.60;11.30;;;;;;;;;;5071903;28;20556;-55
2022/03/20 04:45:11;;;;;;;12.40;10.13;;;;;;;;;;5089727;28;20184;-56
2022/03/20 04:58:36;;;;;;;11.13;9.90;;;;;;;;;;5086060;28;20295;-56
2022/03/20 05:01:03;;;;;;;12.77;10.63;;;;;;;;;;5089708;28;20635;-56
2022/03/20 05:03:31;;;;;;;11.80;10.50;;;;;;;;;;5090296;28;20254;-54
2022/03/20 05:05:58;;;;;;;12.70;10.83;;;;;;;;;;5086140;28;20168;-55
2022/03/20 05:08:24;;;;;;;12.47;11.03;;;;;;;;;;5088591;28;20180;-55
2022/03/20 05:13:53;;;;;;;13.00;9.87;;;;;;;;;;5006010;28;20257;-55
2022/03/20 05:16:19;;;;;;;14.47;10.77;;;;;;;;;;5053945;28;20199;-55
2022/03/20 05:18:45;;;;;;;14.30;11.13;;;;;;;;;;5084729;28;20180;-55
2022/03/20 05:21:11;;;;;;;13.67;12.23;;;;;;;;;;5069108;28;20643;-55
2022/03/20 05:23:39;;;;;;;12.73;10.50;;;;;;;;;;5086412;28;20180;-55
2022/03/20 05:26:05;;;;;;;13.30;10.70;;;;;;;;;;5087501;28;20209;-55
2022/03/20 05:28:31;;;;;;;11.90;10.60;;;;;;;;;;5075218;28;20232;-55
2022/03/20 05:30:57;;;;;;;13.47;11.00;;;;;;;;;;5086636;28;20175;-55
2022/03/20 05:33:24;;;;;;;12.37;11.13;;;;;;;;;;5088618;28;20179;-55
2022/03/20 05:35:50;;;;;;;12.23;9.80;;;;;;;;;;5067679;28;20180;-55
2022/03/20 05:38:16;;;;;;;13.63;10.93;;;;;;;;;;5087735;28;20598;-55
2022/03/20 05:40:44;;;;;;;13.47;11.47;;;;;;;;;;5087078;28;20179;-55
2022/03/20 05:43:10;;;;;;;11.73;9.80;;;;;;;;;;5086938;28;20176;-55
2022/03/20 05:45:37;;;;;;;13.40;11.43;;;;;;;;;;5086284;28;20188;-55
2022/03/20 05:48:04;;;;;;;14.80;11.03;;;;;;;;;;5087890;28;20820;-55
2022/03/20 05:50:30;;;;;;;13.97;10.80;;;;;;;;;;5086342;28;20215;-55
2022/03/20 05:52:56;;;;;;;15.33;10.53;;;;;;;;;;5087414;28;20617;-55
2022/03/20 05:58:01;;;;;;;10.90;9.77;;;;;;;;;;5087658;28;20176;-55
2022/03/20 05:58:13;;;;;;;12.40;10.43;;;;;;;;;;5072294;28;20199;-55
2022/03/20 06:00:42;;;;;;;14.90;11.87;;;;;;;;;;5065131;28;20186;-59
2022/03/20 06:03:10;;;;;;;12.33;10.13;;;;;;;;;;5088347;28;20271;-55
2022/03/20 06:05:36;;;;;;;11.70;10.10;;;;;;;;;;5085615;28;20184;-55
2022/03/20 06:08:03;;;;;;;12.27;10.40;;;;;;;;;;5087478;28;20182;-55
2022/03/20 06:10:29;;;;;;;13.60;11.47;;;;;;;;;;5082206;28;20196;-55
2022/03/20 06:12:55;;;;;;;14.30;10.53;;;;;;;;;;5067825;28;20224;-55
2022/03/20 06:15:22;;;;;;;13.93;10.53;;;;;;;;;;5085756;28;20183;-54
2022/03/20 06:17:48;;;;;;;12.10;10.23;;;;;;;;;;5081859;28;20180;-55
2022/03/20 06:20:15;;;;;;;12.33;10.63;;;;;;;;;;5086676;28;20222;-55
2022/03/20 06:22:43;;;;;;;12.23;10.07;;;;;;;;;;5085392;28;20222;-55
2022/03/20 06:25:09;;;;;;;12.00;9.63;;;;;;;;;;5085175;28;20196;-55
2022/03/20 06:27:47;;;;;;;14.43;11.67;;;;;;;;;;5088610;28;20647;-55
2022/03/20 06:30:14;;;;;;;12.37;10.93;;;;;;;;;;5085660;28;20215;-55
2022/03/20 06:32:41;;;;;;;13.60;10.07;;;;;;;;;;5086612;28;20245;-54
2022/03/20 06:35:07;;;;;;;13.67;10.67;;;;;;;;;;5083732;28;20538;-54
2022/03/20 06:37:38;;;;;;;12.73;9.80;;;;;;;;;;5087405;28;20327;-55
2022/03/20 06:40:04;;;;;;;14.63;10.97;;;;;;;;;;5085252;28;20180;-55
2022/03/20 06:42:31;;;;;;;12.27;9.87;;;;;;;;;;5087651;28;20532;-55
2022/03/20 06:44:59;;;;;;;15.77;11.30;;;;;;;;;;5084513;28;20499;-55
2022/03/20 06:47:26;;;;;;;13.20;10.33;;;;;;;;;;5087833;28;20655;-55
2022/03/20 06:49:53;;;;;;;12.80;10.87;;;;;;;;;;5067025;28;20207;-56
2022/03/20 06:52:23;;;;;;;13.47;11.57;;;;;;;;;;5061805;28;20663;-55
2022/03/20 06:54:50;;;;;;;13.70;10.57;;;;;;;;;;5067117;28;20275;-55
2022/03/20 06:57:20;;;;;;;11.97;10.50;;;;;;;;;;5058356;28;20204;-55
2022/03/20 06:59:46;;;;;;;11.90;9.97;;;;;;;;;;5086501;28;20270;-56
2022/03/20 07:02:15;;;;;;;13.63;10.70;;;;;;;;;;5085212;28;20713;-55
2022/03/20 07:04:41;;;;;;;12.33;10.10;;;;;;;;;;5084190;28;21674;-55
2022/03/20 07:07:07;;;;;;;11.47;9.80;;;;;;;;;;5067790;28;20188;-55
2022/03/20 07:09:34;;;;;;;16.03;11.80;;;;;;;;;;5086465;28;20218;-55
2022/03/20 07:12:00;;;;;;;12.77;10.57;;;;;;;;;;5080426;28;20180;-55
2022/03/20 07:14:26;;;;;;;12.77;10.03;;;;;;;;;;5054609;28;20231;-55
2022/03/20 07:16:53;;;;;;;13.73;11.30;;;;;;;;;;5082651;28;20592;-55
2022/03/20 07:19:19;;;;;;;12.93;10.70;;;;;;;;;;5087154;28;20306;-55
2022/03/20 07:21:45;;;;;;;14.30;11.13;;;;;;;;;;5084710;28;20540;-55
2022/03/20 07:24:11;;;;;;;12.43;10.17;;;;;;;;;;5086630;28;20187;-55
2022/03/20 07:29:31;;;;;;;11.90;10.43;;;;;;;;;;5068011;28;20231;-55
2022/03/20 07:31:57;;;;;;;13.03;10.20;;;;;;;;;;5063419;28;20183;-55
2022/03/20 07:34:24;;;;;;;13.50;10.23;;;;;;;;;;5084636;28;20185;-56
2022/03/20 07:36:51;;;;;;;12.40;10.23;;;;;;;;;;5067823;28;20192;-55
2022/03/20 07:39:17;;;;;;;13.43;10.47;;;;;;;;;;5072556;28;20188;-54
2022/03/20 07:41:44;;;;;;;14.33;10.40;;;;;;;;;;5089667;28;20191;-55
2022/03/20 07:44:10;;;;;;;13.87;10.90;;;;;;;;;;5054835;28;20345;-55
2022/03/20 07:46:39;;;;;;;12.47;10.20;;;;;;;;;;5087601;28;20266;-55
2022/03/20 07:49:07;;;;;;;15.60;11.77;;;;;;;;;;5090808;28;20624;-55
2022/03/20 07:51:33;;;;;;;14.37;10.40;;;;;;;;;;5088288;28;20306;-55
2022/03/20 07:53:59;;;;;;;12.33;10.43;;;;;;;;;;5090921;28;20657;-55
2022/03/20 07:56:28;;;;;;;12.60;9.97;;;;;;;;;;5089228;28;20172;-55
2022/03/20 07:58:55;;;;;;;13.10;10.43;;;;;;;;;;5073089;28;20182;-55
2022/03/20 08:01:21;;;;;;;13.67;10.40;;;;;;;;;;5068846;28;20263;-57
2022/03/20 08:03:51;;;;;;;13.77;11.03;;;;;;;;;;5056873;28;20183;-55
2022/03/20 08:06:17;;;;;;;12.83;11.17;;;;;;;;;;5070831;28;20262;-55
2022/03/20 08:08:45;;;;;;;16.00;10.93;;;;;;;;;;5072219;28;20650;-55
2022/03/20 08:11:11;;;;;;;12.30;10.63;;;;;;;;;;5071016;28;20263;-55
2022/03/20 08:13:38;;;;;;;12.83;10.80;;;;;;;;;;5066245;28;20220;-54
2022/03/20 08:16:04;;;;;;;12.57;11.27;;;;;;;;;;5069175;28;20188;-54
2022/03/20 08:18:31;;;;;;;12.40;11.10;;;;;;;;;;5081484;28;20182;-54
2022/03/20 08:20:57;;;;;;;11.63;10.17;;;;;;;;;;5087184;28;20649;-54
2022/03/20 08:23:23;;;;;;;15.80;11.80;;;;;;;;;;5089978;28;20778;-54
2022/03/20 08:25:50;;;;;;;12.23;10.00;;;;;;;;;;5072868;28;20647;-55
2022/03/20 08:28:19;;;;;;;13.53;11.43;;;;;;;;;;5070132;28;20577;-55
2022/03/20 08:30:46;;;;;;;12.67;10.57;;;;;;;;;;5070719;28;20253;-55
2022/03/20 08:33:12;;;;;;;14.57;12.07;;;;;;;;;;5071552;28;20179;-55
2022/03/20 08:35:39;;;;;;;13.03;11.27;;;;;;;;;;5073046;28;20180;-55
2022/03/20 08:38:05;;;;;;;14.57;11.87;;;;;;;;;;5069841;28;20580;-55
2022/03/20 08:40:33;;;;;;;11.93;10.67;;;;;;;;;;5059412;28;20665;-55
2022/03/20 08:42:59;;;;;;;14.20;11.30;;;;;;;;;;5069031;28;20194;-56
2022/03/20 08:45:31;;;;;;;15.40;12.33;;;;;;;;;;5083838;28;20184;-55
2022/03/20 08:47:57;;;;;;;14.70;12.57;;;;;;;;;;5073902;28;20207;-55
2022/03/20 08:50:24;;;;;;;17.13;11.13;;;;;;;;;;5065997;28;20286;-56
2022/03/20 08:52:50;;;;;;;15.37;12.00;;;;;;;;;;5089607;28;20654;-55
2022/03/20 08:55:20;;;;;;;13.83;11.23;;;;;;;;;;5090587;28;20160;-56
2022/03/20 08:57:47;;;;;;;16.10;11.63;;;;;;;;;;5090364;28;20265;-55
2022/03/20 09:00:14;;;;;;;13.47;10.83;;;;;;;;;;5091087;28;20183;-55
2022/03/20 09:02:43;;;;;;;17.00;12.53;;;;;;;;;;5087495;28;20542;-55
2022/03/20 09:05:11;;;;;;;16.53;12.70;;;;;;;;;;5090437;28;20574;-55
2022/03/20 09:07:38;;;;;;;14.83;11.73;;;;;;;;;;5082688;28;20191;-55
2022/03/20 09:10:04;;;;;;;14.87;10.93;;;;;;;;;;5103614;28;20646;-55
2022/03/20 09:12:30;;;;;;;14.57;11.43;;;;;;;;;;5089155;28;20179;-56
2022/03/20 09:14:56;;;;;;;12.90;11.57;;;;;;;;;;5090173;28;20701;-55
2022/03/20 09:20:08;;;;;;;15.90;12.00;;;;;;;;;;5070167;28;20176;-55
2022/03/20 09:22:34;;;;;;;15.23;12.10;;;;;;;;;;5058355;28;20674;-55
2022/03/20 09:25:00;;;;;;;14.40;11.83;;;;;;;;;;5070411;28;20272;-55
2022/03/20 09:27:27;;;;;;;13.07;10.93;;;;;;;;;;5090369;28;20198;-56
2022/03/20 09:29:54;;;;;;;14.10;12.43;;;;;;;;;;5090045;28;20214;-57
2022/03/20 09:32:20;;;;;;;15.03;12.87;;;;;;;;;;5071061;28;20596;-56
2022/03/20 09:34:47;;;;;;;15.67;12.13;;;;;;;;;;5086990;28;20194;-56
2022/03/20 09:37:13;;;;;;;15.63;12.93;;;;;;;;;;5085398;28;20172;-55
2022/03/20 09:39:39;;;;;;;14.77;12.33;;;;;;;;;;5087345;28;20188;-55
2022/03/20 09:42:06;;;;;;;15.30;12.63;;;;;;;;;;5068099;28;20186;-55
2022/03/20 09:44:34;;;;;;;15.97;13.03;;;;;;;;;;5077980;28;20187;-56
2022/03/20 09:47:01;;;;;;;15.40;12.40;;;;;;;;;;5074363;28;20191;-56
2022/03/20 09:49:28;;;;;;;15.93;12.30;;;;;;;;;;5069517;28;20211;-56
2022/03/20 09:51:54;;;;;;;15.33;12.43;;;;;;;;;;5067509;28;20189;-56
2022/03/20 09:54:21;;;;;;;14.97;12.97;;;;;;;;;;5070304;28;20172;-55
2022/03/20 09:56:51;;;;;;;14.57;13.03;;;;;;;;;;5070269;28;20192;-55
2022/03/20 09:59:17;;;;;;;19.80;13.27;;;;;;;;;;5069076;28;20207;-54
2022/03/20 10:01:44;;;;;;;15.17;12.57;;;;;;;;;;5085664;28;20188;-55
2022/03/20 10:04:16;;;;;;;16.03;13.17;;;;;;;;;;5070119;28;20738;-55
2022/03/20 10:06:43;;;;;;;14.77;12.53;;;;;;;;;;5087015;28;20195;-55
2022/03/20 10:09:11;;;;;;;14.40;12.90;;;;;;;;;;5070484;28;20629;-55
2022/03/20 10:11:57;;;;;;;18.63;13.53;;;;;;;;;;5058604;28;20266;-55
2022/03/20 10:14:24;;;;;;;15.03;12.60;;;;;;;;;;5063286;28;20268;-55
2022/03/20 10:17:16;;;;;;;18.07;13.27;;;;;;;;;;5085480;28;20190;-55
2022/03/20 10:19:43;;;;;;;13.87;12.13;;;;;;;;;;5078850;28;20192;-55
2022/03/20 10:22:10;;;;;;;14.83;12.57;;;;;;;;;;5065257;28;20188;-55
2022/03/20 10:24:38;;;;;;;16.33;12.47;;;;;;;;;;5068484;28;20188;-55
2022/03/20 10:27:07;;;;;;;15.53;13.70;;;;;;;;;;5085657;28;20183;-55
2022/03/20 10:29:33;;;;;;;15.83;12.47;;;;;;;;;;5078051;28;20204;-55
2022/03/20 10:32:02;;;;;;;15.70;13.40;;;;;;;;;;5045189;28;20629;-55
2022/03/20 10:34:28;;;;;;;15.17;12.37;;;;;;;;;;5048357;28;20184;-56
2022/03/20 10:36:55;;;;;;;13.97;12.53;;;;;;;;;;5076498;28;20515;-56
2022/03/20 10:39:22;;;;;;;15.40;11.97;;;;;;;;;;5069954;28;20194;-56
2022/03/20 10:41:50;;;;;;;13.17;11.27;;;;;;;;;;5088046;28;20733;-56
2022/03/20 10:44:18;;;;;;;15.33;12.67;;;;;;;;;;5050736;28;20187;-56
2022/03/20 10:46:54;;;;;;;15.07;13.00;;;;;;;;;;5085960;28;20211;-56
2022/03/20 10:49:21;;;;;;;15.60;12.40;;;;;;;;;;5087354;28;20640;-56
2022/03/20 10:52:00;;;;;;;14.93;12.53;;;;;;;;;;5090734;28;20531;-56
2022/03/20 10:54:38;;;;;;;15.03;13.47;;;;;;;;;;5085158;28;20220;-57
2022/03/20 10:57:06;;;;;;;16.97;13.90;;;;;;;;;;5084359;28;20211;-57
2022/03/20 10:59:33;;;;;;;16.27;13.90;;;;;;;;;;5074765;28;20191;-57
2022/03/20 11:02:00;;;;;;;15.03;13.20;;;;;;;;;;5076935;28;20179;-57
2022/03/20 11:04:26;;;;;;;19.90;13.83;;;;;;;;;;5062865;28;20187;-57
2022/03/20 11:06:54;;;;;;;22.13;15.70;;;;;;;;;;5072997;28;20542;-57
2022/03/20 11:09:21;;;;;;;15.93;13.00;;;;;;;;;;5084052;28;20207;-56
2022/03/20 11:11:51;;;;;;;15.57;13.90;;;;;;;;;;5066274;28;20266;-56
2022/03/20 11:14:25;;;;;;;17.50;13.80;;;;;;;;;;5085513;28;20219;-56
2022/03/20 11:16:54;;;;;;;20.80;13.53;;;;;;;;;;5069560;28;20725;-56
2022/03/20 11:19:23;;;;;;;18.97;14.73;;;;;;;;;;5070189;28;20179;-57
2022/03/20 11:21:50;;;;;;;20.50;12.80;;;;;;;;;;5076678;28;20196;-56
2022/03/20 11:24:17;;;;;;;17.83;13.73;;;;;;;;;;5077711;28;20206;-56
2022/03/20 11:26:44;;;;;;;16.93;13.60;;;;;;;;;;5087780;28;20266;-56
2022/03/20 11:29:12;;;;;;;15.83;13.13;;;;;;;;;;5071650;28;20694;-56
2022/03/20 11:31:38;;;;;;;17.27;14.63;;;;;;;;;;5075899;28;20214;-56
2022/03/20 11:34:08;;;;;;;15.80;13.40;;;;;;;;;;5087641;28;20176;-58
2022/03/20 11:36:53;;;;;;;15.87;14.00;;;;;;;;;;5064542;28;20672;-56
2022/03/20 11:39:19;;;;;;;16.70;14.93;;;;;;;;;;5069612;28;20549;-56
2022/03/20 11:41:45;;;;;;;19.17;15.20;;;;;;;;;;5081707;28;20187;-56
2022/03/20 11:44:20;;;;;;;18.80;16.30;;;;;;;;;;5068172;28;20632;-56
2022/03/20 11:46:47;;;;;;;20.27;16.70;;;;;;;;;;5058853;28;20197;-56
2022/03/20 11:49:17;;;;;;;22.30;16.80;;;;;;;;;;5070037;28;20696;-55
2022/03/20 11:52:02;;;;;;;18.03;15.07;;;;;;;;;;5077616;28;20184;-56
2022/03/20 11:54:43;;;;;;;19.47;16.40;;;;;;;;;;5067565;28;20180;-56
2022/03/20 11:57:28;;;;;;;17.83;15.90;;;;;;;;;;5079584;28;20198;-56
2022/03/20 11:59:55;;;;;;;20.03;16.87;;;;;;;;;;5070811;28;20271;-53
2022/03/20 12:02:25;;;;;;;21.47;18.03;;;;;;;;;;5082468;28;20220;-54
2022/03/20 12:05:13;;;;;;;20.43;17.73;;;;;;;;;;5088145;28;20203;-55
2022/03/20 12:07:55;;;;;;;23.30;19.17;;;;;;;;;;5051597;28;20432;-55
2022/03/20 12:10:22;;;;;;;20.97;18.07;;;;;;;;;;5069072;28;20571;-55
2022/03/20 12:13:00;;;;;;;21.17;18.00;;;;;;;;;;5069006;28;20234;-55
2022/03/20 12:15:29;;;;;;;23.47;18.57;;;;;;;;;;5068311;28;20690;-54
2022/03/20 12:18:02;;;;;;;22.47;18.80;;;;;;;;;;5087348;28;20176;-55
2022/03/20 12:20:47;;;;;;;20.80;17.93;;;;;;;;;;5069879;28;20210;-55
2022/03/20 12:23:28;;;;;;;21.13;18.80;;;;;;;;;;5066683;28;20337;-55
2022/03/20 12:25:54;;;;;;;19.07;16.87;;;;;;;;;;5055576;28;20306;-55
2022/03/20 12:28:30;;;;;;;22.87;17.63;;;;;;;;;;5084753;28;20719;-55
2022/03/20 12:30:57;;;;;;;24.90;18.30;;;;;;;;;;5072466;28;20227;-55
2022/03/20 12:33:27;;;;;;;20.17;17.77;;;;;;;;;;5077944;28;20982;-55
2022/03/20 12:35:53;;;;;;;22.47;17.50;;;;;;;;;;5066617;28;20570;-55
2022/03/20 12:38:40;;;;;;;21.10;18.53;;;;;;;;;;5090688;28;20190;-55
2022/03/20 12:41:14;;;;;;;21.67;18.63;;;;;;;;;;5087137;28;20247;-55
2022/03/20 12:43:41;;;;;;;21.50;18.30;;;;;;;;;;5052674;28;20514;-55
2022/03/20 12:46:08;;;;;;;22.50;18.80;;;;;;;;;;5075034;28;20651;-55
2022/03/20 12:48:35;;;;;;;20.77;18.57;;;;;;;;;;5066498;28;20590;-55
2022/03/20 12:51:11;;;;;;;22.73;18.90;;;;;;;;;;5056256;28;20204;-54
2022/03/20 12:53:42;;;;;;;24.77;19.17;;;;;;;;;;5089503;28;20650;-55
2022/03/20 12:56:18;;;;;;;19.97;17.23;;;;;;;;;;5086651;28;20324;-55
2022/03/20 12:58:45;;;;;;;23.83;19.00;;;;;;;;;;5073655;28;20164;-55
2022/03/20 13:01:11;;;;;;;22.83;19.83;;;;;;;;;;5087276;28;20176;-56
2022/03/20 13:03:37;;;;;;;25.17;19.70;;;;;;;;;;5079607;28;20202;-55
2022/03/20 13:06:04;;;;;;;23.50;19.43;;;;;;;;;;5071140;28;20187;-55
2022/03/20 13:08:40;;;;;;;26.93;19.30;;;;;;;;;;5089153;28;20619;-55
2022/03/20 13:11:48;;;;;;;23.33;17.60;;;;;;;;;;5090048;28;20620;-55
2022/03/20 13:13:54;;;;;;;22.60;19.07;;;;;;;;;;5086988;28;20226;-55
2022/03/20 13:16:24;;;;;;;22.73;18.63;;;;;;;;;;5071475;28;20186;-55
2022/03/20 13:18:50;;;;;;;23.63;18.40;;;;;;;;;;5052238;28;20187;-55
2022/03/20 13:21:17;;;;;;;22.30;19.33;;;;;;;;;;5057243;28;20188;-56
2022/03/20 13:23:45;;;;;;;23.47;18.53;;;;;;;;;;5069813;28;20266;-56
2022/03/20 13:26:14;;;;;;;22.93;18.47;;;;;;;;;;5090015;28;20184;-56
2022/03/20 13:28:40;;;;;;;22.03;18.87;;;;;;;;;;5089130;28;20190;-56
2022/03/20 13:31:10;;;;;;;20.60;17.87;;;;;;;;;;5071657;28;20195;-57
2022/03/20 13:33:37;;;;;;;20.23;17.87;;;;;;;;;;5071170;28;20187;-57
2022/03/20 13:36:12;;;;;;;21.83;17.90;;;;;;;;;;5071067;28;20180;-56
2022/03/20 13:38:43;;;;;;;22.27;18.23;;;;;;;;;;5080981;28;20172;-56
2022/03/20 13:41:14;;;;;;;21.47;18.20;;;;;;;;;;5087598;28;20203;-56
2022/03/20 13:43:41;;;;;;;23.50;19.03;;;;;;;;;;5071048;28;20176;-57
2022/03/20 13:46:16;;;;;;;22.43;18.03;;;;;;;;;;5071459;28;20188;-58
2022/03/20 13:48:43;;;;;;;23.27;19.93;;;;;;;;;;5071733;28;20630;-58
2022/03/20 13:51:10;;;;;;;21.30;17.57;;;;;;;;;;5067502;28;20204;-58
2022/03/20 13:53:37;;;;;;;22.70;19.53;;;;;;;;;;5070134;28;20183;-58
2022/03/20 13:56:03;;;;;;;21.63;17.90;;;;;;;;;;5086303;28;20184;-58
2022/03/20 13:58:30;;;;;;;22.37;18.07;;;;;;;;;;5050744;28;20234;-58
2022/03/20 14:01:03;;;;;;;19.53;16.97;;;;;;;;;;5073949;28;20195;-58
2022/03/20 14:03:30;;;;;;;22.73;18.37;;;;;;;;;;5051260;28;20183;-58
2022/03/20 14:05:57;;;;;;;22.10;17.77;;;;;;;;;;5054286;28;20191;-59
2022/03/20 14:08:24;;;;;;;22.03;17.63;;;;;;;;;;5088920;28;20182;-59
2022/03/20 14:11:05;;;;;;;20.30;17.67;;;;;;;;;;5069146;28;20208;-59
2022/03/20 14:13:32;;;;;;;22.60;17.97;;;;;;;;;;5069313;28;20229;-59
2022/03/20 14:16:02;;;;;;;23.67;19.53;;;;;;;;;;5054479;28;20194;-59
2022/03/20 14:18:29;;;;;;;23.00;19.10;;;;;;;;;;5089355;28;20644;-60
2022/03/20 14:21:19;;;;;;;44.30;19.87;;;;;;;;;;5084595;28;20656;-57
2022/03/20 14:23:58;;;;;;;22.40;18.63;;;;;;;;;;5086583;28;20762;-60
2022/03/20 14:26:25;;;;;;;22.87;18.30;;;;;;;;;;5086892;28;20217;-60
2022/03/20 14:29:12;;;;;;;23.47;19.30;;;;;;;;;;5079747;28;20188;-61
2022/03/20 14:40:11;;;;;;;23.00;16.53;;;;;;;;;;5088540;28;20225;-59
2022/03/20 14:42:38;;;;;;;20.17;17.40;;;;;;;;;;5063317;28;20195;-59
2022/03/20 14:45:05;;;;;;;19.23;16.83;;;;;;;;;;5085013;28;20223;-59
2022/03/20 14:47:33;;;;;;;19.17;17.13;;;;;;;;;;5097237;28;20188;-59
2022/03/20 14:50:00;;;;;;;19.00;16.97;;;;;;;;;;5070219;28;20215;-59
2022/03/20 14:52:26;;;;;;;22.63;17.37;;;;;;;;;;5068384;28;20315;-60
2022/03/20 14:54:53;;;;;;;19.90;17.83;;;;;;;;;;5065600;28;20541;-59
2022/03/20 14:57:19;;;;;;;21.70;18.23;;;;;;;;;;5068912;28;20781;-60
2022/03/20 14:59:46;;;;;;;22.07;18.90;;;;;;;;;;5070732;28;20232;-60